createdAt,value
2022-10-31T00:00:49.663Z,29.23
2022-10-31T00:03:18.134Z,29.37
2022-10-31T00:05:47.683Z,28.70
2022-10-31T00:08:15.897Z,28.33
2022-10-31T00:10:46.537Z,28.67
2022-10-31T00:13:15.763Z,26.50
2022-10-31T00:15:43.815Z,24.20
2022-10-31T00:18:12.688Z,25.93
2022-10-31T00:20:41.115Z,25.70
2022-10-31T00:23:09.251Z,24.63
2022-10-31T00:25:39.873Z,23.57
2022-10-31T00:28:13.070Z,23.53
2022-10-31T00:30:41.057Z,24.37
2022-10-31T00:33:09.003Z,24.57
2022-10-31T00:35:36.922Z,24.80
2022-10-31T00:38:04.839Z,23.00
2022-10-31T00:40:32.923Z,25.00
2022-10-31T00:43:01.121Z,24.60
2022-10-31T00:45:30.736Z,27.20
2022-10-31T00:47:59.007Z,25.30
2022-10-31T00:50:27.308Z,27.00
2022-10-31T00:52:55.258Z,24.90
2022-10-31T00:55:23.147Z,24.27
2022-10-31T00:57:51.114Z,26.13
2022-10-31T01:00:19.348Z,24.97
2022-10-31T01:02:48.813Z,25.27
2022-10-31T01:05:16.858Z,21.83
2022-10-31T01:07:44.812Z,21.50
2022-10-31T01:10:13.668Z,22.67
2022-10-31T01:12:42.393Z,22.47
2022-10-31T01:15:12.389Z,20.13
2022-10-31T01:17:40.476Z,21.03
2022-10-31T01:20:11.442Z,21.97
2022-10-31T01:22:39.352Z,20.53
2022-10-31T01:27:49.472Z,19.70
2022-10-31T01:30:17.492Z,18.37
2022-10-31T01:32:45.464Z,17.90
2022-10-31T01:35:14.894Z,16.67
2022-10-31T01:37:42.834Z,18.00
2022-10-31T01:40:11.981Z,17.47
2022-10-31T01:42:39.950Z,17.27
2022-10-31T01:45:12.259Z,16.00
2022-10-31T01:47:45.234Z,16.30
2022-10-31T01:50:26.012Z,14.53
2022-10-31T01:52:54.822Z,15.47
2022-10-31T01:55:30.061Z,15.17
2022-10-31T01:58:02.346Z,15.37
2022-10-31T02:00:30.758Z,15.23
2022-10-31T02:03:00.524Z,14.90
2022-10-31T02:05:32.388Z,13.80
2022-10-31T02:08:04.957Z,15.77
2022-10-31T02:10:34.902Z,13.60
2022-10-31T02:13:05.877Z,13.57
2022-10-31T02:15:34.953Z,13.73
2022-10-31T02:18:03.566Z,13.90
2022-10-31T02:20:38.336Z,14.30
2022-10-31T02:23:26.815Z,13.70
2022-10-31T02:26:25.746Z,13.17
2022-10-31T02:29:19.163Z,13.43
2022-10-31T02:31:55.816Z,13.70
2022-10-31T02:34:31.155Z,14.17
2022-10-31T02:37:03.892Z,13.37
2022-10-31T02:39:39.025Z,12.83
2022-10-31T02:42:15.299Z,13.30
2022-10-31T02:44:50.755Z,12.13
2022-10-31T02:47:24.025Z,13.03
2022-10-31T02:49:58.764Z,13.37
2022-10-31T02:52:29.227Z,11.83
2022-10-31T02:54:57.673Z,12.03
2022-10-31T02:57:27.434Z,11.73
2022-10-31T02:59:59.128Z,11.17
2022-10-31T03:02:53.938Z,11.70
2022-10-31T03:05:47.984Z,11.40
2022-10-31T03:08:23.821Z,11.40
2022-10-31T03:10:56.922Z,10.63
2022-10-31T03:13:33.683Z,10.77
2022-10-31T03:16:11.219Z,12.13
2022-10-31T03:18:44.590Z,10.60
2022-10-31T03:21:15.524Z,10.60
2022-10-31T03:23:46.063Z,10.60
2022-10-31T03:26:16.024Z,10.00
2022-10-31T03:28:48.189Z,10.90
2022-10-31T03:31:20.279Z,9.40
2022-10-31T03:33:53.003Z,11.50
2022-10-31T03:36:21.836Z,10.47
2022-10-31T03:38:50.372Z,9.97
2022-10-31T03:41:23.133Z,9.97
2022-10-31T03:43:57.522Z,10.00
2022-10-31T03:46:25.830Z,9.73
2022-10-31T03:48:55.202Z,9.87
2022-10-31T03:51:28.615Z,9.53
2022-10-31T03:54:04.053Z,9.47
2022-10-31T03:56:35.430Z,9.33
2022-10-31T03:59:07.835Z,9.40
2022-10-31T04:01:40.396Z,9.77
2022-10-31T04:04:10.586Z,8.90
2022-10-31T04:06:41.044Z,9.30
2022-10-31T04:09:11.559Z,9.77
2022-10-31T04:11:44.175Z,10.23
2022-10-31T04:14:13.301Z,9.07
2022-10-31T04:16:43.917Z,9.27
2022-10-31T04:19:14.195Z,9.13
2022-10-31T04:21:44.277Z,8.87
2022-10-31T04:24:12.409Z,8.83
2022-10-31T04:26:40.360Z,8.83
2022-10-31T04:29:08.292Z,8.93
2022-10-31T04:31:36.274Z,8.90
2022-10-31T04:34:04.268Z,7.57
2022-10-31T04:36:33.596Z,9.30
2022-10-31T04:39:01.532Z,8.17
2022-10-31T04:41:29.548Z,8.93
2022-10-31T04:43:57.477Z,8.10
2022-10-31T04:46:25.479Z,8.43
2022-10-31T04:48:53.447Z,8.73
2022-10-31T04:51:21.386Z,8.27
2022-10-31T04:53:50.672Z,7.90
2022-10-31T04:56:18.728Z,9.50
2022-10-31T04:58:46.667Z,9.07
2022-10-31T05:01:15.041Z,8.13
2022-10-31T05:03:43.063Z,7.63
2022-10-31T05:06:11.122Z,8.17
2022-10-31T05:08:39.040Z,7.97
2022-10-31T05:11:08.376Z,7.80
2022-10-31T05:13:36.366Z,7.53
2022-10-31T05:16:04.298Z,7.33
2022-10-31T05:18:32.238Z,7.57
2022-10-31T05:21:00.311Z,8.43
2022-10-31T05:23:28.208Z,7.10
2022-10-31T05:25:56.479Z,7.63
2022-10-31T05:28:25.841Z,7.27
2022-10-31T05:30:53.847Z,8.13
2022-10-31T05:33:21.771Z,7.20
2022-10-31T05:35:50.592Z,6.93
2022-10-31T05:38:18.521Z,6.87
2022-10-31T05:40:46.444Z,7.07
2022-10-31T05:43:14.399Z,6.93
2022-10-31T05:45:43.711Z,7.40
2022-10-31T05:48:15.224Z,7.30
2022-10-31T05:50:43.198Z,7.20
2022-10-31T05:53:11.353Z,7.13
2022-10-31T05:55:40.403Z,7.00
2022-10-31T05:58:08.895Z,7.17
2022-10-31T06:00:36.944Z,6.80
2022-10-31T06:05:40.525Z,7.27
2022-10-31T06:08:08.457Z,6.77
2022-10-31T06:10:36.828Z,7.27
2022-10-31T06:13:04.758Z,7.17
2022-10-31T06:15:32.699Z,7.40
2022-10-31T06:18:02.879Z,6.73
2022-10-31T06:20:32.887Z,7.50
2022-10-31T06:23:01.187Z,5.63
2022-10-31T06:25:29.762Z,7.03
2022-10-31T06:27:58.039Z,7.40
2022-10-31T06:30:26.267Z,6.90
2022-10-31T06:32:54.551Z,7.17
2022-10-31T06:35:22.462Z,6.10
2022-10-31T06:37:55.549Z,6.30
2022-10-31T06:40:24.037Z,7.07
2022-10-31T06:42:58.753Z,6.47
2022-10-31T06:45:26.875Z,5.70
2022-10-31T06:50:43.067Z,6.00
2022-10-31T06:53:12.804Z,5.87
2022-10-31T06:55:41.047Z,6.17
2022-10-31T06:58:10.937Z,5.80
2022-10-31T07:00:39.680Z,6.67
2022-10-31T07:03:11.125Z,6.10
2022-10-31T07:05:39.306Z,6.83
2022-10-31T07:08:09.436Z,5.80
2022-10-31T07:10:40.945Z,6.20
2022-10-31T07:13:13.311Z,6.33
2022-10-31T07:15:42.515Z,5.70
2022-10-31T07:18:13.624Z,6.57
2022-10-31T07:20:41.609Z,6.43
2022-10-31T07:23:10.992Z,5.97
2022-10-31T07:25:40.794Z,5.80
2022-10-31T07:28:09.284Z,5.90
2022-10-31T07:30:37.258Z,5.60
2022-10-31T07:33:05.834Z,5.80
2022-10-31T07:35:35.779Z,5.23
2022-10-31T07:38:11.500Z,5.50
2022-10-31T07:40:41.341Z,5.10
2022-10-31T07:43:13.944Z,5.13
2022-10-31T07:45:42.913Z,5.60
2022-10-31T07:48:10.938Z,5.10
2022-10-31T07:50:38.926Z,5.20
2022-10-31T07:53:09.009Z,4.80
2022-10-31T07:55:37.826Z,5.70
2022-10-31T07:58:08.719Z,5.40
2022-10-31T08:00:38.156Z,5.00
2022-10-31T08:03:07.583Z,5.23
2022-10-31T08:05:36.522Z,5.03
2022-10-31T08:08:04.967Z,4.80
2022-10-31T08:10:33.431Z,4.87
2022-10-31T08:13:02.819Z,4.50
2022-10-31T08:15:32.395Z,4.30
2022-10-31T08:18:00.784Z,4.60
2022-10-31T08:20:28.935Z,4.87
2022-10-31T08:23:01.246Z,4.33
2022-10-31T08:25:33.738Z,4.20
2022-10-31T08:28:05.971Z,4.93
2022-10-31T08:30:37.215Z,5.00
2022-10-31T08:33:07.324Z,4.70
2022-10-31T08:35:35.465Z,4.47
2022-10-31T08:38:04.329Z,4.50
2022-10-31T08:40:34.083Z,5.00
2022-10-31T08:43:03.449Z,5.00
2022-10-31T08:45:32.770Z,4.90
2022-10-31T08:48:03.428Z,4.87
2022-10-31T08:50:33.274Z,4.80
2022-10-31T08:53:06.409Z,5.17
2022-10-31T08:55:36.520Z,4.50
2022-10-31T08:58:06.321Z,5.70
2022-10-31T09:00:34.809Z,4.70
2022-10-31T09:03:05.740Z,4.43
2022-10-31T09:05:33.848Z,4.43
2022-10-31T09:08:03.542Z,4.33
2022-10-31T09:10:33.215Z,4.13
2022-10-31T09:13:02.425Z,4.13
2022-10-31T09:15:30.843Z,4.20
2022-10-31T09:17:59.108Z,4.07
2022-10-31T09:20:29.276Z,3.80
2022-10-31T09:23:01.430Z,4.03
2022-10-31T09:25:30.089Z,4.20
2022-10-31T09:27:59.727Z,4.07
2022-10-31T09:30:30.478Z,4.03
2022-10-31T09:32:58.791Z,4.03
2022-10-31T09:35:29.103Z,4.00
2022-10-31T09:37:58.112Z,3.60
2022-10-31T09:40:32.109Z,3.57
2022-10-31T09:43:05.937Z,3.67
2022-10-31T09:45:40.750Z,4.37
2022-10-31T09:48:19.383Z,4.20
2022-10-31T09:50:53.809Z,4.43
2022-10-31T09:53:28.726Z,4.47
2022-10-31T09:55:57.136Z,4.17
2022-10-31T09:58:28.333Z,4.43
2022-10-31T10:00:59.803Z,4.70
2022-10-31T10:03:37.159Z,4.30
2022-10-31T10:06:15.095Z,4.50
2022-10-31T10:08:43.253Z,4.57
2022-10-31T10:11:27.550Z,4.80
2022-10-31T10:14:16.276Z,4.30
2022-10-31T10:16:59.622Z,4.90
2022-10-31T10:19:40.092Z,4.87
2022-10-31T10:22:17.991Z,5.10
2022-10-31T10:25:01.474Z,5.20
2022-10-31T10:27:49.203Z,4.73
2022-10-31T10:30:20.210Z,5.13
2022-10-31T10:32:52.836Z,5.03
2022-10-31T10:35:25.462Z,5.23
2022-10-31T10:38:00.957Z,7.27
2022-10-31T10:40:31.106Z,10.27
2022-10-31T10:43:22.008Z,9.67
2022-10-31T10:46:13.243Z,8.43
2022-10-31T10:48:46.453Z,7.90
2022-10-31T10:51:39.040Z,8.07
2022-10-31T10:54:25.873Z,7.10
2022-10-31T10:57:02.789Z,8.23
2022-10-31T10:59:31.497Z,8.60
2022-10-31T11:02:00.926Z,8.63
2022-10-31T11:04:34.699Z,8.17
2022-10-31T11:07:05.218Z,8.73
2022-10-31T11:09:35.535Z,8.47
2022-10-31T11:12:10.389Z,8.43
2022-10-31T11:14:46.871Z,8.17
2022-10-31T11:17:24.894Z,8.40
2022-10-31T11:20:03.209Z,8.77
2022-10-31T11:22:31.396Z,7.07
2022-10-31T11:25:00.756Z,8.33
2022-10-31T11:27:29.093Z,8.17
2022-10-31T11:30:07.358Z,8.73
2022-10-31T11:32:35.492Z,8.80
2022-10-31T11:35:11.083Z,8.73
2022-10-31T11:37:45.108Z,7.93
2022-10-31T11:40:21.324Z,8.97
2022-10-31T11:42:51.145Z,8.90
2022-10-31T11:45:29.358Z,8.40
2022-10-31T11:48:00.120Z,8.10
2022-10-31T11:50:31.483Z,8.23
2022-10-31T11:52:59.458Z,7.53
2022-10-31T11:55:37.647Z,8.60
2022-10-31T11:58:06.098Z,8.63
2022-10-31T12:00:38.549Z,9.13
2022-10-31T12:03:14.447Z,8.50
2022-10-31T12:05:45.709Z,7.87
2022-10-31T12:08:15.280Z,7.40
2022-10-31T12:10:53.188Z,6.83
2022-10-31T12:13:34.394Z,6.97
2022-10-31T12:16:09.283Z,5.73
2022-10-31T12:18:53.604Z,7.77
2022-10-31T12:21:36.406Z,7.50
2022-10-31T12:24:15.098Z,6.50
2022-10-31T12:29:36.261Z,7.30
2022-10-31T12:32:22.340Z,7.20
2022-10-31T12:35:12.197Z,7.03
2022-10-31T12:37:50.747Z,7.57
2022-10-31T12:40:33.616Z,7.80
2022-10-31T12:43:14.528Z,7.10
2022-10-31T12:45:54.120Z,6.37
2022-10-31T12:48:47.015Z,7.13
2022-10-31T12:51:23.745Z,7.27
2022-10-31T12:54:06.859Z,6.37
2022-10-31T12:56:47.467Z,6.93
2022-10-31T12:59:21.714Z,6.40
2022-10-31T13:01:57.338Z,6.70
2022-10-31T13:04:37.086Z,6.97
2022-10-31T13:07:10.314Z,6.63
2022-10-31T13:09:44.706Z,7.83
2022-10-31T13:12:15.446Z,8.37
2022-10-31T13:14:48.090Z,6.93
2022-10-31T13:17:24.578Z,6.70
2022-10-31T13:19:55.561Z,6.43
2022-10-31T13:22:26.887Z,7.17
2022-10-31T13:25:00.556Z,6.90
2022-10-31T13:27:32.495Z,6.87
2022-10-31T13:30:05.584Z,6.73
2022-10-31T13:32:52.759Z,6.67
2022-10-31T13:35:29.063Z,7.03
2022-10-31T13:38:10.869Z,7.50
2022-10-31T13:40:46.708Z,8.00
2022-10-31T13:43:22.514Z,8.33
2022-10-31T13:45:52.560Z,7.63
2022-10-31T13:48:37.010Z,7.73
2022-10-31T13:51:08.602Z,7.40
2022-10-31T13:53:43.488Z,8.20
2022-10-31T13:56:24.238Z,7.40
2022-10-31T13:59:21.608Z,6.60
2022-10-31T14:01:54.209Z,7.90
2022-10-31T14:04:26.841Z,7.60
2022-10-31T14:07:07.049Z,7.57
2022-10-31T14:09:37.487Z,6.60
2022-10-31T14:12:08.983Z,7.80
2022-10-31T14:14:45.288Z,7.17
2022-10-31T14:17:24.115Z,7.10
2022-10-31T14:20:37.067Z,7.40
2022-10-31T14:23:41.187Z,7.90
2022-10-31T14:26:20.152Z,7.10
2022-10-31T14:28:50.657Z,7.60
2022-10-31T14:31:35.978Z,6.60
2022-10-31T14:34:17.891Z,7.53
2022-10-31T14:36:54.580Z,8.33
2022-10-31T14:39:28.051Z,9.60
2022-10-31T14:42:08.810Z,7.83
2022-10-31T14:44:58.339Z,7.20
2022-10-31T14:47:35.885Z,6.90
2022-10-31T14:50:23.770Z,6.70
2022-10-31T14:52:56.635Z,6.97
2022-10-31T14:55:26.665Z,7.10
2022-10-31T14:57:59.758Z,7.37
2022-10-31T15:00:29.034Z,7.50
2022-10-31T15:03:08.816Z,7.03
2022-10-31T15:05:44.349Z,8.23
2022-10-31T15:08:31.217Z,7.73
2022-10-31T15:11:00.339Z,7.70
2022-10-31T15:13:28.330Z,8.30
2022-10-31T15:15:58.005Z,7.70
2022-10-31T15:18:28.287Z,8.67
2022-10-31T15:20:57.887Z,8.53
2022-10-31T15:23:28.781Z,7.73
2022-10-31T15:26:03.574Z,10.00
2022-10-31T15:28:32.160Z,8.27
2022-10-31T15:31:01.909Z,9.30
2022-10-31T15:33:37.872Z,11.00
2022-10-31T15:36:07.212Z,12.63
2022-10-31T15:38:36.687Z,12.37
2022-10-31T15:41:07.825Z,13.10
2022-10-31T15:43:39.198Z,12.10
2022-10-31T15:46:11.104Z,11.43
2022-10-31T15:48:41.518Z,13.17
2022-10-31T15:51:09.788Z,11.27
2022-10-31T15:53:44.481Z,12.70
2022-10-31T15:56:15.000Z,13.17
2022-10-31T15:58:46.149Z,12.17
2022-10-31T16:01:23.850Z,12.27
2022-10-31T16:04:08.274Z,12.67
2022-10-31T16:06:36.788Z,13.13
2022-10-31T16:09:20.832Z,14.93
2022-10-31T16:11:48.950Z,13.40
2022-10-31T16:14:25.294Z,14.27
2022-10-31T16:16:55.833Z,16.73
2022-10-31T16:19:26.477Z,15.97
2022-10-31T16:21:57.559Z,16.47
2022-10-31T16:24:30.146Z,19.50
2022-10-31T16:27:04.642Z,19.00
2022-10-31T16:29:44.188Z,19.27
2022-10-31T16:32:27.747Z,18.07
2022-10-31T16:35:18.255Z,19.80
2022-10-31T16:37:46.530Z,20.90
2022-10-31T16:40:16.863Z,19.83
2022-10-31T16:42:46.093Z,19.53
2022-10-31T16:45:19.141Z,22.00
2022-10-31T16:47:47.493Z,56.00
2022-10-31T16:50:17.696Z,90.30
2022-10-31T16:53:15.330Z,85.43
2022-10-31T16:55:45.294Z,65.27
2022-10-31T16:58:18.648Z,45.20
2022-10-31T17:00:47.625Z,53.57
2022-10-31T17:03:15.645Z,60.17
2022-10-31T17:05:43.696Z,46.80
2022-10-31T17:08:11.672Z,44.80
2022-10-31T17:10:42.691Z,38.20
2022-10-31T17:13:16.496Z,29.93
2022-10-31T17:15:48.102Z,26.87
2022-10-31T17:18:17.125Z,26.13
2022-10-31T17:20:47.453Z,26.10
2022-10-31T17:23:16.878Z,27.17
2022-10-31T17:25:46.198Z,35.10
2022-10-31T17:28:15.425Z,30.30
2022-10-31T17:30:44.515Z,27.17
2022-10-31T17:33:14.313Z,23.93
2022-10-31T17:35:42.566Z,24.20
2022-10-31T17:38:10.643Z,25.73
2022-10-31T17:40:39.794Z,29.97
2022-10-31T17:43:13.564Z,29.70
2022-10-31T17:45:42.876Z,27.90
2022-10-31T17:48:12.460Z,25.50
2022-10-31T17:50:41.930Z,29.10
2022-10-31T17:53:09.870Z,31.77
2022-10-31T17:55:37.958Z,34.03
2022-10-31T17:58:06.532Z,32.60
2022-10-31T18:00:35.860Z,33.77
2022-10-31T18:03:04.590Z,36.93
2022-10-31T18:05:32.881Z,37.63
2022-10-31T18:08:04.017Z,42.80
2022-10-31T18:10:32.606Z,39.83
2022-10-31T18:13:00.951Z,36.10
2022-10-31T18:15:30.749Z,39.90
2022-10-31T18:18:00.509Z,34.50
2022-10-31T18:20:28.697Z,41.83
2022-10-31T18:22:56.620Z,42.87
2022-10-31T18:25:24.533Z,46.57
2022-10-31T18:27:52.457Z,41.23
2022-10-31T18:30:20.401Z,37.03
2022-10-31T18:32:50.566Z,36.73
2022-10-31T18:35:20.145Z,33.13
2022-10-31T18:37:48.087Z,41.17
2022-10-31T18:40:16.472Z,43.20
2022-10-31T18:42:44.624Z,42.87
2022-10-31T18:45:31.275Z,41.00
2022-10-31T18:48:00.775Z,40.20
2022-10-31T18:50:30.362Z,41.10
2022-10-31T18:52:58.558Z,42.07
2022-10-31T18:55:26.603Z,44.23
2022-10-31T18:57:54.603Z,45.57
2022-10-31T19:00:22.600Z,41.17
2022-10-31T19:02:50.590Z,40.30
2022-10-31T19:05:19.155Z,46.17
2022-10-31T19:07:48.699Z,47.17
2022-10-31T19:10:16.704Z,46.47
2022-10-31T19:12:44.593Z,42.43
2022-10-31T19:15:12.864Z,40.80
2022-10-31T19:17:40.799Z,40.33
2022-10-31T19:20:09.946Z,37.70
2022-10-31T19:22:37.907Z,35.97
2022-10-31T19:25:10.595Z,37.20
2022-10-31T19:27:39.803Z,36.33
2022-10-31T19:30:09.347Z,33.93
2022-10-31T19:32:37.264Z,34.97
2022-10-31T19:35:08.926Z,37.57
2022-10-31T19:37:37.222Z,38.70
2022-10-31T19:40:08.584Z,36.53
2022-10-31T19:42:36.936Z,35.80
2022-10-31T19:45:05.698Z,41.87
2022-10-31T19:47:34.228Z,42.63
2022-10-31T19:50:04.810Z,42.60
2022-10-31T19:52:35.093Z,39.43
2022-10-31T19:55:03.286Z,40.03
2022-10-31T19:58:01.300Z,39.13
2022-10-31T20:00:22.489Z,41.97
2022-10-31T20:02:50.425Z,37.10
2022-10-31T20:05:18.372Z,38.70
2022-10-31T20:07:46.303Z,35.47
2022-10-31T20:10:14.534Z,37.93
2022-10-31T20:12:44.022Z,38.07
2022-10-31T20:15:12.072Z,37.63
2022-10-31T20:17:40.050Z,37.00
2022-10-31T20:20:09.089Z,35.17
2022-10-31T20:22:37.627Z,33.33
2022-10-31T20:25:06.639Z,34.30
2022-10-31T20:30:15.693Z,37.07
2022-10-31T20:32:48.982Z,36.83
2022-10-31T20:35:18.261Z,37.73
2022-10-31T20:37:46.199Z,36.53
2022-10-31T20:40:14.166Z,34.07
2022-10-31T20:42:42.098Z,38.53
2022-10-31T20:45:10.657Z,38.60
2022-10-31T20:47:39.950Z,38.07
2022-10-31T20:50:08.753Z,37.47
2022-10-31T20:52:36.675Z,37.20
2022-10-31T20:55:04.948Z,34.30
2022-10-31T20:57:32.915Z,35.77
2022-10-31T21:00:00.886Z,33.70
2022-10-31T21:02:28.912Z,33.80
2022-10-31T21:04:58.391Z,33.80
2022-10-31T21:07:26.441Z,33.07
2022-10-31T21:09:54.414Z,33.80
2022-10-31T21:12:22.353Z,35.37
2022-10-31T21:14:50.492Z,32.37
2022-10-31T21:17:18.416Z,32.13
2022-10-31T21:19:46.363Z,30.97
2022-10-31T21:22:15.671Z,33.47
2022-10-31T21:24:43.672Z,31.50
2022-10-31T21:27:12.560Z,31.43
2022-10-31T21:29:40.696Z,30.47
2022-10-31T21:32:08.680Z,30.23
2022-10-31T21:34:36.620Z,30.20
2022-10-31T21:37:04.595Z,30.33
2022-10-31T21:39:33.967Z,30.40
2022-10-31T21:42:01.993Z,29.23
2022-10-31T21:44:30.646Z,30.50
2022-10-31T21:46:58.579Z,28.97
2022-10-31T21:49:26.543Z,29.87
2022-10-31T21:51:54.454Z,30.10
2022-10-31T21:54:33.216Z,28.60
2022-10-31T21:57:03.376Z,28.57
2022-10-31T21:59:31.945Z,27.17
2022-10-31T22:02:00.844Z,29.13
2022-10-31T22:04:29.382Z,31.10
2022-10-31T22:06:57.313Z,30.03
2022-10-31T22:09:25.232Z,29.03
2022-10-31T22:11:53.139Z,30.33
2022-10-31T22:14:22.464Z,27.23
2022-10-31T22:16:50.382Z,28.30
2022-10-31T22:19:18.312Z,29.00
2022-10-31T22:21:48.805Z,27.30
2022-10-31T22:24:17.728Z,27.97
2022-10-31T22:26:45.682Z,28.03
2022-10-31T22:29:15.574Z,27.67
2022-10-31T22:31:47.642Z,28.27
2022-10-31T22:34:18.898Z,29.43
2022-10-31T22:36:47.237Z,30.97
2022-10-31T22:39:15.430Z,32.93
2022-10-31T22:41:43.422Z,32.03
2022-10-31T22:44:11.451Z,31.00
2022-10-31T22:46:40.740Z,29.73
2022-10-31T22:49:15.053Z,27.63
2022-10-31T22:51:44.427Z,26.50
2022-10-31T22:54:14.258Z,26.53
2022-10-31T22:56:42.593Z,25.77
2022-10-31T22:59:13.338Z,24.17
2022-10-31T23:01:41.674Z,24.00
2022-10-31T23:06:44.255Z,21.53
2022-10-31T23:09:16.405Z,21.33
2022-10-31T23:11:44.848Z,23.43
2022-10-31T23:14:13.920Z,21.27
2022-10-31T23:16:46.927Z,24.23
2022-10-31T23:19:18.212Z,27.67
2022-10-31T23:21:59.985Z,28.30
2022-10-31T23:24:32.828Z,31.33
2022-10-31T23:27:10.126Z,30.93
2022-10-31T23:29:44.226Z,29.17
2022-10-31T23:32:15.171Z,29.20
2022-10-31T23:34:44.859Z,32.33
2022-10-31T23:37:13.411Z,35.63
2022-10-31T23:39:42.056Z,37.83
2022-10-31T23:42:10.351Z,36.00
2022-10-31T23:44:38.288Z,35.30
2022-10-31T23:47:06.653Z,35.60
2022-10-31T23:49:34.812Z,31.43
2022-10-31T23:52:04.573Z,29.33
2022-10-31T23:54:33.279Z,28.60
2022-10-31T23:57:01.995Z,25.70
2022-10-31T23:59:30.489Z,26.50
